createdAt,value
2022-08-22T00:00:51.922Z,33.99
2022-08-22T00:01:51.949Z,34.09
2022-08-22T00:03:08.205Z,33.02
2022-08-22T00:03:09.502Z,32.15
2022-08-22T00:03:12.643Z,32.05
2022-08-22T00:03:51.923Z,34.09
2022-08-22T00:04:51.923Z,33.61
2022-08-22T00:05:51.927Z,34.09
2022-08-22T00:06:51.924Z,33.80
2022-08-22T00:07:52.012Z,33.70
2022-08-22T00:08:51.925Z,33.70
2022-08-22T00:09:51.926Z,33.80
2022-08-22T00:10:51.928Z,33.80
2022-08-22T00:11:51.927Z,33.80
2022-08-22T00:12:51.926Z,33.80
2022-08-22T00:13:54.843Z,33.90
2022-08-22T00:14:51.927Z,33.90
2022-08-22T00:15:51.931Z,33.80
2022-08-22T00:16:53.496Z,33.90
2022-08-22T00:17:51.930Z,33.90
2022-08-22T00:18:51.929Z,33.90
2022-08-22T00:19:51.932Z,33.80
2022-08-22T00:20:51.930Z,33.80
2022-08-22T00:21:51.933Z,33.80
2022-08-22T00:22:51.932Z,33.90
2022-08-22T00:23:51.933Z,33.90
2022-08-22T00:24:51.933Z,34.48
2022-08-22T00:25:51.935Z,34.09
2022-08-22T00:26:51.933Z,34.28
2022-08-22T00:27:51.944Z,34.38
2022-08-22T00:28:51.935Z,34.38
2022-08-22T00:29:52.438Z,34.19
2022-08-22T00:30:51.936Z,34.28
2022-08-22T00:31:51.940Z,34.19
2022-08-22T00:32:51.938Z,34.19
2022-08-22T00:33:51.938Z,33.80
2022-08-22T00:34:51.939Z,34.09
2022-08-22T00:35:51.939Z,34.09
2022-08-22T00:36:51.940Z,33.99
2022-08-22T00:37:51.975Z,33.99
2022-08-22T00:38:51.946Z,34.09
2022-08-22T00:39:51.988Z,33.99
2022-08-22T00:40:51.941Z,34.28
2022-08-22T00:41:51.945Z,34.28
2022-08-22T00:42:51.942Z,34.09
2022-08-22T00:43:51.943Z,34.28
2022-08-22T00:44:51.943Z,34.28
2022-08-22T00:45:51.945Z,34.19
2022-08-22T00:46:51.943Z,34.28
2022-08-22T00:47:52.026Z,34.48
2022-08-22T00:48:51.945Z,34.48
2022-08-22T00:49:51.947Z,34.38
2022-08-22T00:50:51.945Z,34.38
2022-08-22T00:51:51.948Z,34.48
2022-08-22T00:52:51.948Z,34.87
2022-08-22T00:53:51.949Z,34.77
2022-08-22T00:54:51.948Z,34.97
2022-08-22T00:55:51.950Z,34.77
2022-08-22T00:56:51.949Z,34.58
2022-08-22T00:57:52.066Z,34.87
2022-08-22T00:58:51.949Z,34.87
2022-08-22T00:59:51.951Z,34.67
2022-08-22T01:00:51.995Z,34.77
2022-08-22T01:01:51.951Z,34.77
2022-08-22T01:02:52.903Z,34.77
2022-08-22T01:03:51.953Z,35.06
2022-08-22T01:04:51.955Z,34.97
2022-08-22T01:05:51.963Z,34.87
2022-08-22T01:06:51.957Z,34.97
2022-08-22T01:07:51.957Z,34.97
2022-08-22T01:08:51.957Z,34.97
2022-08-22T01:09:51.955Z,35.06
2022-08-22T01:10:51.957Z,34.97
2022-08-22T01:11:51.956Z,34.87
2022-08-22T01:12:51.958Z,34.97
2022-08-22T01:13:51.957Z,35.06
2022-08-22T01:14:51.959Z,35.06
2022-08-22T01:15:51.958Z,35.06
2022-08-22T01:16:51.961Z,34.97
2022-08-22T01:17:51.961Z,35.06
2022-08-22T01:18:51.962Z,34.97
2022-08-22T01:19:51.960Z,34.97
2022-08-22T01:20:51.962Z,34.77
2022-08-22T01:21:51.963Z,34.77
2022-08-22T01:22:51.962Z,34.87
2022-08-22T01:23:51.963Z,34.87
2022-08-22T01:24:51.966Z,35.06
2022-08-22T01:25:51.964Z,34.97
2022-08-22T01:26:51.966Z,34.97
2022-08-22T01:27:52.001Z,34.87
2022-08-22T01:28:51.967Z,34.87
2022-08-22T01:29:51.967Z,34.87
2022-08-22T01:30:51.967Z,34.77
2022-08-22T01:31:51.966Z,34.87
2022-08-22T01:32:53.928Z,35.16
2022-08-22T01:33:51.968Z,34.97
2022-08-22T01:34:51.969Z,34.97
2022-08-22T01:35:51.968Z,34.97
2022-08-22T01:36:51.971Z,34.97
2022-08-22T01:37:51.972Z,35.06
2022-08-22T01:38:51.970Z,34.87
2022-08-22T01:39:52.042Z,34.87
2022-08-22T01:40:54.254Z,34.77
2022-08-22T01:41:51.972Z,34.87
2022-08-22T01:42:51.975Z,34.87
2022-08-22T01:44:00.638Z,35.06
2022-08-22T01:44:51.974Z,34.87
2022-08-22T01:45:51.975Z,34.77
2022-08-22T01:46:51.975Z,35.16
2022-08-22T01:47:54.247Z,34.97
2022-08-22T01:48:51.976Z,34.97
2022-08-22T01:49:51.976Z,35.25
2022-08-22T01:50:51.980Z,34.87
2022-08-22T01:51:51.977Z,34.87
2022-08-22T01:52:51.979Z,35.06
2022-08-22T01:53:51.978Z,35.06
2022-08-22T01:54:51.978Z,35.16
2022-08-22T01:55:51.979Z,35.16
2022-08-22T01:56:51.982Z,35.16
2022-08-22T01:57:52.062Z,35.25
2022-08-22T01:58:51.981Z,35.16
2022-08-22T01:59:51.980Z,35.25
2022-08-22T02:00:52.001Z,35.35
2022-08-22T02:01:51.981Z,35.35
2022-08-22T02:02:51.983Z,35.25
2022-08-22T02:03:51.982Z,35.25
2022-08-22T02:04:51.984Z,35.25
2022-08-22T02:05:51.985Z,35.25
2022-08-22T02:06:51.986Z,35.45
2022-08-22T02:07:51.985Z,35.55
2022-08-22T02:08:51.989Z,35.55
2022-08-22T02:09:51.986Z,35.55
2022-08-22T02:10:51.987Z,35.74
2022-08-22T02:11:51.987Z,35.84
2022-08-22T02:12:51.989Z,35.55
2022-08-22T02:13:51.988Z,35.64
2022-08-22T02:14:51.991Z,35.55
2022-08-22T02:15:51.989Z,35.64
2022-08-22T02:16:51.990Z,35.64
2022-08-22T02:17:52.005Z,35.64
2022-08-22T02:18:51.991Z,35.74
2022-08-22T02:19:51.990Z,35.64
2022-08-22T02:20:51.992Z,35.64
2022-08-22T02:21:51.992Z,35.64
2022-08-22T02:22:51.994Z,35.55
2022-08-22T02:23:51.992Z,35.55
2022-08-22T02:24:51.996Z,35.74
2022-08-22T02:25:51.994Z,35.55
2022-08-22T02:26:51.995Z,35.94
2022-08-22T02:27:51.997Z,35.74
2022-08-22T02:28:57.041Z,35.94
2022-08-22T02:29:51.996Z,35.94
2022-08-22T02:30:51.997Z,35.64
2022-08-22T02:31:51.998Z,35.94
2022-08-22T02:32:52.030Z,35.84
2022-08-22T02:33:52.000Z,35.64
2022-08-22T02:34:52.000Z,35.74
2022-08-22T02:35:51.999Z,35.74
2022-08-22T02:36:52.001Z,35.74
2022-08-22T02:37:52.005Z,35.64
2022-08-22T02:38:52.002Z,35.84
2022-08-22T02:39:52.035Z,35.55
2022-08-22T02:40:52.003Z,35.74
2022-08-22T02:41:52.002Z,35.74
2022-08-22T02:42:52.003Z,35.45
2022-08-22T02:43:52.004Z,35.84
2022-08-22T02:44:52.004Z,35.94
2022-08-22T02:45:52.006Z,35.84
2022-08-22T02:46:52.008Z,36.04
2022-08-22T02:47:52.052Z,35.55
2022-08-22T02:48:52.006Z,35.84
2022-08-22T02:49:52.007Z,36.04
2022-08-22T02:50:52.008Z,35.84
2022-08-22T02:51:52.008Z,35.84
2022-08-22T02:52:52.010Z,35.55
2022-08-22T02:53:52.012Z,35.84
2022-08-22T02:54:52.012Z,35.64
2022-08-22T02:55:52.012Z,36.04
2022-08-22T02:56:52.522Z,35.64
2022-08-22T02:57:52.092Z,36.04
2022-08-22T02:58:52.012Z,35.84
2022-08-22T02:59:52.013Z,35.55
2022-08-22T03:00:52.049Z,35.64
2022-08-22T03:01:52.013Z,35.84
2022-08-22T03:02:52.014Z,36.04
2022-08-22T03:03:52.013Z,35.94
2022-08-22T03:04:52.016Z,35.84
2022-08-22T03:05:52.015Z,35.84
2022-08-22T03:06:52.017Z,35.84
2022-08-22T03:07:52.033Z,35.84
2022-08-22T03:08:52.017Z,35.74
2022-08-22T03:09:52.036Z,35.74
2022-08-22T03:10:52.019Z,36.13
2022-08-22T03:11:52.019Z,35.74
2022-08-22T03:12:56.949Z,35.84
2022-08-22T03:13:52.019Z,35.74
2022-08-22T03:14:52.021Z,35.94
2022-08-22T03:15:52.021Z,35.94
2022-08-22T03:16:52.023Z,35.84
2022-08-22T03:17:52.022Z,35.84
2022-08-22T03:18:52.021Z,35.94
2022-08-22T03:19:52.023Z,35.94
2022-08-22T03:20:52.024Z,35.74
2022-08-22T03:21:52.026Z,35.94
2022-08-22T03:22:52.025Z,35.94
2022-08-22T03:23:52.024Z,35.94
2022-08-22T03:24:52.025Z,35.94
2022-08-22T03:25:52.025Z,36.22
2022-08-22T03:26:52.027Z,35.64
2022-08-22T03:27:52.088Z,35.94
2022-08-22T03:28:59.165Z,35.74
2022-08-22T03:29:52.029Z,35.64
2022-08-22T03:30:52.030Z,36.52
2022-08-22T03:31:52.030Z,35.94
2022-08-22T03:32:52.033Z,35.64
2022-08-22T03:33:52.030Z,35.74
2022-08-22T03:34:52.030Z,35.94
2022-08-22T03:35:52.031Z,35.64
2022-08-22T03:36:52.036Z,36.04
2022-08-22T03:37:52.129Z,35.84
2022-08-22T03:38:52.183Z,35.64
2022-08-22T03:39:52.071Z,36.32
2022-08-22T03:40:52.037Z,35.64
2022-08-22T03:41:52.034Z,35.74
2022-08-22T03:42:52.034Z,35.84
2022-08-22T03:43:52.034Z,35.74
2022-08-22T03:44:52.038Z,36.04
2022-08-22T03:45:52.036Z,35.94
2022-08-22T03:46:52.037Z,35.84
2022-08-22T03:47:52.037Z,35.94
2022-08-22T03:48:52.039Z,36.04
2022-08-22T03:49:52.038Z,35.84
2022-08-22T03:50:54.513Z,35.84
2022-08-22T03:51:52.039Z,35.94
2022-08-22T03:52:52.042Z,36.22
2022-08-22T03:53:52.040Z,36.04
2022-08-22T03:54:52.041Z,35.84
2022-08-22T03:55:52.041Z,36.04
2022-08-22T03:56:54.017Z,36.04
2022-08-22T03:57:52.078Z,36.42
2022-08-22T03:58:52.043Z,36.42
2022-08-22T03:59:52.043Z,35.84
2022-08-22T04:00:52.426Z,36.32
2022-08-22T04:01:52.046Z,35.94
2022-08-22T04:02:52.046Z,36.32
2022-08-22T04:03:52.046Z,36.42
2022-08-22T04:04:52.047Z,36.42
2022-08-22T04:05:52.786Z,36.13
2022-08-22T04:06:56.456Z,36.13
2022-08-22T04:07:52.047Z,36.13
2022-08-22T04:08:52.053Z,36.04
2022-08-22T04:09:52.049Z,36.13
2022-08-22T04:10:52.049Z,36.13
2022-08-22T04:11:52.050Z,36.22
2022-08-22T04:12:52.052Z,36.04
2022-08-22T04:13:52.053Z,36.04
2022-08-22T04:14:52.055Z,36.22
2022-08-22T04:19:20.334Z,36.22
2022-08-22T04:20:17.508Z,35.64
2022-08-22T04:21:17.508Z,35.74
2022-08-22T04:22:17.506Z,35.94
2022-08-22T04:23:17.508Z,35.74
2022-08-22T04:24:17.508Z,35.94
2022-08-22T04:25:17.507Z,36.04
2022-08-22T04:26:17.506Z,36.22
2022-08-22T04:27:17.506Z,36.22
2022-08-22T04:28:17.506Z,36.13
2022-08-22T04:29:17.509Z,36.04
2022-08-22T04:30:17.507Z,35.94
2022-08-22T04:31:17.516Z,36.22
2022-08-22T04:32:17.508Z,35.94
2022-08-22T04:33:17.510Z,36.32
2022-08-22T04:34:17.508Z,36.71
2022-08-22T04:35:17.510Z,36.04
2022-08-22T04:36:17.511Z,36.61
2022-08-22T04:37:17.510Z,36.71
2022-08-22T04:38:17.509Z,36.42
2022-08-22T04:39:17.511Z,36.71
2022-08-22T04:40:17.571Z,36.61
2022-08-22T04:41:17.513Z,36.71
2022-08-22T04:42:32.188Z,36.71
2022-08-22T04:43:17.513Z,36.61
2022-08-22T04:44:17.515Z,36.61
2022-08-22T04:45:17.516Z,36.71
2022-08-22T04:46:17.513Z,36.71
2022-08-22T04:47:17.517Z,36.71
2022-08-22T04:48:17.515Z,36.71
2022-08-22T04:49:17.518Z,36.71
2022-08-22T04:50:17.516Z,36.32
2022-08-22T04:51:17.517Z,36.32
2022-08-22T04:52:17.516Z,36.71
2022-08-22T04:53:17.518Z,36.42
2022-08-22T04:54:17.519Z,36.42
2022-08-22T04:55:17.520Z,36.42
2022-08-22T04:56:17.519Z,36.32
2022-08-22T04:57:17.523Z,36.32
2022-08-22T04:58:17.519Z,36.32
2022-08-22T04:59:17.521Z,36.42
2022-08-22T05:00:17.521Z,36.52
2022-08-22T05:01:17.554Z,36.42
2022-08-22T05:02:17.524Z,36.42
2022-08-22T05:03:17.524Z,36.52
2022-08-22T05:04:17.524Z,36.42
2022-08-22T05:05:17.526Z,36.52
2022-08-22T05:06:17.524Z,36.42
2022-08-22T05:07:17.526Z,36.52
2022-08-22T05:08:17.525Z,36.42
2022-08-22T05:09:17.527Z,36.52
2022-08-22T05:10:17.525Z,36.22
2022-08-22T05:11:17.527Z,36.52
2022-08-22T05:12:17.528Z,36.22
2022-08-22T05:13:17.531Z,36.61
2022-08-22T05:14:17.527Z,36.61
2022-08-22T05:15:19.031Z,36.61
2022-08-22T05:16:17.530Z,36.61
2022-08-22T05:17:17.530Z,36.61
2022-08-22T05:18:17.529Z,36.32
2022-08-22T05:19:21.433Z,36.42
2022-08-22T05:20:17.532Z,36.52
2022-08-22T05:21:17.532Z,36.32
2022-08-22T05:22:17.531Z,36.52
2022-08-22T05:23:17.930Z,36.13
2022-08-22T05:24:17.534Z,36.22
2022-08-22T05:25:17.536Z,36.32
2022-08-22T05:26:17.535Z,36.52
2022-08-22T05:27:17.536Z,36.61
2022-08-22T05:28:17.537Z,36.22
2022-08-22T05:29:17.540Z,36.52
2022-08-22T05:30:17.536Z,36.52
2022-08-22T05:31:17.537Z,36.44
2022-08-22T05:32:17.537Z,36.42
2022-08-22T05:33:17.539Z,36.42
2022-08-22T05:34:17.540Z,36.52
2022-08-22T05:35:17.540Z,36.52
2022-08-22T05:36:17.541Z,36.52
2022-08-22T05:37:17.543Z,36.61
2022-08-22T05:38:17.540Z,36.52
2022-08-22T05:39:17.542Z,36.52
2022-08-22T05:40:17.745Z,36.61
2022-08-22T05:41:17.545Z,36.44
2022-08-22T05:42:17.544Z,36.24
2022-08-22T05:43:17.544Z,36.24
2022-08-22T05:44:17.545Z,36.61
2022-08-22T05:45:17.546Z,36.34
2022-08-22T05:46:17.545Z,36.54
2022-08-22T05:47:17.548Z,36.32
2022-08-22T05:48:17.546Z,36.42
2022-08-22T05:49:17.550Z,36.54
2022-08-22T05:50:17.549Z,36.54
2022-08-22T05:51:17.548Z,36.54
2022-08-22T05:52:17.548Z,36.42
2022-08-22T05:53:17.551Z,36.54
2022-08-22T05:54:17.550Z,36.15
2022-08-22T05:55:17.552Z,36.15
2022-08-22T05:56:17.551Z,36.15
2022-08-22T05:57:17.554Z,36.54
2022-08-22T05:58:17.552Z,36.34
2022-08-22T05:59:17.555Z,36.44
2022-08-22T06:00:17.552Z,36.44
2022-08-22T06:01:17.624Z,36.32
2022-08-22T06:02:17.555Z,36.63
2022-08-22T06:03:17.557Z,36.54
2022-08-22T06:04:17.555Z,36.54
2022-08-22T06:05:17.559Z,36.73
2022-08-22T06:06:17.565Z,36.42
2022-08-22T06:07:17.558Z,36.44
2022-08-22T06:08:17.559Z,37.01
2022-08-22T06:09:17.559Z,36.54
2022-08-22T06:10:17.561Z,36.52
2022-08-22T06:11:17.562Z,36.54
2022-08-22T06:12:21.775Z,36.44
2022-08-22T06:13:17.563Z,36.44
2022-08-22T06:14:17.561Z,36.52
2022-08-22T06:15:20.947Z,36.63
2022-08-22T06:16:17.563Z,36.54
2022-08-22T06:17:17.564Z,36.52
2022-08-22T06:18:17.565Z,36.54
2022-08-22T06:19:19.169Z,36.83
2022-08-22T06:20:17.564Z,36.83
2022-08-22T06:21:17.566Z,36.54
2022-08-22T06:22:18.715Z,36.63
2022-08-22T06:23:17.567Z,36.42
2022-08-22T06:24:17.567Z,36.63
2022-08-22T06:25:17.570Z,36.34
2022-08-22T06:26:20.381Z,36.63
2022-08-22T06:27:17.570Z,36.73
2022-08-22T06:28:17.568Z,36.44
2022-08-22T06:29:17.572Z,36.24
2022-08-22T06:30:17.569Z,36.15
2022-08-22T06:31:17.571Z,36.15
2022-08-22T06:32:17.574Z,35.86
2022-08-22T06:33:17.574Z,35.76
2022-08-22T06:34:17.573Z,35.76
2022-08-22T06:35:17.574Z,36.34
2022-08-22T06:36:17.575Z,35.76
2022-08-22T06:37:17.578Z,35.86
2022-08-22T06:38:17.574Z,36.44
2022-08-22T06:39:17.576Z,35.96
2022-08-22T06:40:17.907Z,35.86
2022-08-22T06:41:17.581Z,35.86
2022-08-22T06:42:17.578Z,36.34
2022-08-22T06:43:17.580Z,35.96
2022-08-22T06:44:17.578Z,35.96
2022-08-22T06:45:17.581Z,35.66
2022-08-22T06:46:17.579Z,36.15
2022-08-22T06:47:17.581Z,36.54
2022-08-22T06:48:17.582Z,35.66
2022-08-22T06:49:17.585Z,35.96
2022-08-22T06:50:17.582Z,35.96
2022-08-22T06:51:17.585Z,35.68
2022-08-22T06:52:17.584Z,35.86
2022-08-22T06:53:17.585Z,36.24
2022-08-22T06:54:17.584Z,36.24
2022-08-22T06:55:17.585Z,36.05
2022-08-22T06:56:17.587Z,35.66
2022-08-22T06:57:17.589Z,35.88
2022-08-22T06:58:17.593Z,35.86
2022-08-22T06:59:17.588Z,35.57
2022-08-22T07:00:17.589Z,35.76
2022-08-22T07:01:17.650Z,35.86
2022-08-22T07:02:17.590Z,35.76
2022-08-22T07:03:17.592Z,36.07
2022-08-22T07:04:17.592Z,36.05
2022-08-22T07:05:17.594Z,35.76
2022-08-22T07:06:17.592Z,35.57
2022-08-22T07:07:17.594Z,35.96
2022-08-22T07:08:17.594Z,36.07
2022-08-22T07:09:17.596Z,35.78
2022-08-22T07:10:17.594Z,35.57
2022-08-22T07:11:17.596Z,35.96
2022-08-22T07:12:17.596Z,35.68
2022-08-22T07:13:17.599Z,35.78
2022-08-22T07:14:17.598Z,36.24
2022-08-22T07:15:17.600Z,35.78
2022-08-22T07:16:17.600Z,35.76
2022-08-22T07:17:17.604Z,35.97
2022-08-22T07:18:17.601Z,36.05
2022-08-22T07:19:17.603Z,35.78
2022-08-22T07:20:17.602Z,36.73
2022-08-22T07:21:17.604Z,35.78
2022-08-22T07:22:17.603Z,36.05
2022-08-22T07:23:17.605Z,36.05
2022-08-22T07:24:17.608Z,36.24
2022-08-22T07:25:17.610Z,36.46
2022-08-22T07:26:17.605Z,36.05
2022-08-22T07:27:17.608Z,35.86
2022-08-22T07:28:17.609Z,35.86
2022-08-22T07:29:17.610Z,36.55
2022-08-22T07:30:17.608Z,36.15
2022-08-22T07:31:17.747Z,36.44
2022-08-22T07:32:17.609Z,36.24
2022-08-22T07:33:25.704Z,36.73
2022-08-22T07:34:17.619Z,36.34
2022-08-22T07:35:17.615Z,36.44
2022-08-22T07:36:17.613Z,36.54
2022-08-22T07:37:17.614Z,36.63
2022-08-22T07:38:17.614Z,36.44
2022-08-22T07:39:17.615Z,36.44
2022-08-22T07:40:17.680Z,36.54
2022-08-22T07:41:17.617Z,36.73
2022-08-22T07:42:17.615Z,36.63
2022-08-22T07:43:17.617Z,36.54
2022-08-22T07:44:17.617Z,36.63
2022-08-22T07:45:17.621Z,36.73
2022-08-22T07:46:17.619Z,36.34
2022-08-22T07:47:18.118Z,36.44
2022-08-22T07:48:25.606Z,36.73
2022-08-22T07:49:17.624Z,36.63
2022-08-22T07:50:17.622Z,36.44
2022-08-22T07:51:17.623Z,36.34
2022-08-22T07:52:17.624Z,36.44
2022-08-22T07:53:17.626Z,36.44
2022-08-22T07:54:17.624Z,36.34
2022-08-22T07:55:17.632Z,36.63
2022-08-22T07:56:17.629Z,36.63
2022-08-22T07:57:17.627Z,36.34
2022-08-22T07:58:17.626Z,36.63
2022-08-22T07:59:17.628Z,36.54
2022-08-22T08:00:17.627Z,36.44
2022-08-22T08:01:17.676Z,36.83
2022-08-22T08:02:17.632Z,36.83
2022-08-22T08:03:17.630Z,36.73
2022-08-22T08:04:17.630Z,37.02
2022-08-22T08:05:17.635Z,36.54
2022-08-22T08:06:17.632Z,36.83
2022-08-22T08:07:17.633Z,36.54
2022-08-22T08:08:17.633Z,36.54
2022-08-22T08:09:17.635Z,36.73
2022-08-22T08:10:17.633Z,36.83
2022-08-22T08:11:17.636Z,36.73
2022-08-22T08:12:17.637Z,37.02
2022-08-22T08:13:17.637Z,37.41
2022-08-22T08:14:17.638Z,37.22
2022-08-22T08:15:17.639Z,37.32
2022-08-22T08:16:17.638Z,37.22
2022-08-22T08:17:17.641Z,37.32
2022-08-22T08:18:17.639Z,37.22
2022-08-22T08:19:17.641Z,37.12
2022-08-22T08:20:17.640Z,37.32
2022-08-22T08:21:17.643Z,37.32
2022-08-22T08:22:17.642Z,37.10
2022-08-22T08:23:17.643Z,37.32
2022-08-22T08:24:17.644Z,37.30
2022-08-22T08:25:17.646Z,37.39
2022-08-22T08:26:17.645Z,37.20
2022-08-22T08:27:17.645Z,37.02
2022-08-22T08:28:18.167Z,36.93
2022-08-22T08:29:17.647Z,37.10
2022-08-22T08:30:17.645Z,36.83
2022-08-22T08:31:17.648Z,36.73
2022-08-22T08:32:17.650Z,36.93
2022-08-22T08:33:24.829Z,36.91
2022-08-22T08:34:17.649Z,36.81
2022-08-22T08:35:17.649Z,36.52
2022-08-22T08:36:17.650Z,36.52
2022-08-22T08:37:17.650Z,36.22
2022-08-22T08:38:17.651Z,36.81
2022-08-22T08:39:17.653Z,36.52
2022-08-22T08:40:17.686Z,36.52
2022-08-22T08:41:22.103Z,36.63
2022-08-22T08:42:17.655Z,36.52
2022-08-22T08:43:17.654Z,36.22
2022-08-22T08:44:17.656Z,36.44
2022-08-22T08:45:17.655Z,36.34
2022-08-22T08:46:17.656Z,36.22
2022-08-22T08:47:17.656Z,36.52
2022-08-22T08:48:17.656Z,36.24
2022-08-22T08:49:17.657Z,36.44
2022-08-22T08:50:17.657Z,36.63
2022-08-22T08:51:17.669Z,36.81
2022-08-22T08:52:17.661Z,36.73
2022-08-22T08:53:17.659Z,36.32
2022-08-22T08:54:17.659Z,36.83
2022-08-22T08:55:21.778Z,36.61
2022-08-22T08:56:19.781Z,36.91
2022-08-22T08:57:17.661Z,36.52
2022-08-22T08:59:17.662Z,36.71
2022-08-22T09:00:17.662Z,36.71
2022-08-22T09:01:19.425Z,37.01
2022-08-22T09:02:20.457Z,37.01
2022-08-22T09:03:24.008Z,37.01
2022-08-22T09:04:17.664Z,37.01
2022-08-22T09:05:19.526Z,36.71
2022-08-22T09:06:17.666Z,37.10
2022-08-22T09:07:17.665Z,36.91
2022-08-22T09:08:17.669Z,36.91
2022-08-22T09:09:17.667Z,37.10
2022-08-22T09:10:18.834Z,37.20
2022-08-22T09:11:17.666Z,37.10
2022-08-22T09:12:17.669Z,37.39
2022-08-22T09:13:17.668Z,37.30
2022-08-22T09:14:17.669Z,37.10
2022-08-22T09:15:17.668Z,37.10
2022-08-22T09:16:17.670Z,37.10
2022-08-22T09:17:17.699Z,37.01
2022-08-22T09:18:18.576Z,37.10
2022-08-22T09:19:17.670Z,36.91
2022-08-22T09:20:19.694Z,37.20
2022-08-22T09:21:30.477Z,36.91
2022-08-22T09:22:17.672Z,37.39
2022-08-22T09:23:17.675Z,37.30
2022-08-22T09:24:17.675Z,37.10
2022-08-22T09:25:17.679Z,37.49
2022-08-22T09:26:17.675Z,37.59
2022-08-22T09:27:17.674Z,37.68
2022-08-22T09:28:17.730Z,37.39
2022-08-22T09:29:17.676Z,37.59
2022-08-22T09:30:17.679Z,37.59
2022-08-22T09:31:32.733Z,37.30
2022-08-22T09:32:19.072Z,37.39
2022-08-22T09:33:17.680Z,37.30
2022-08-22T09:34:23.975Z,37.49
2022-08-22T09:35:17.678Z,37.39
2022-08-22T09:36:17.680Z,37.20
2022-08-22T09:37:17.751Z,37.30
2022-08-22T09:38:17.680Z,37.01
2022-08-22T09:39:17.679Z,37.10
2022-08-22T09:40:20.419Z,37.30
2022-08-22T09:41:17.680Z,37.30
2022-08-22T09:42:17.682Z,37.30
2022-08-22T09:43:21.367Z,37.20
2022-08-22T09:44:17.683Z,37.10
2022-08-22T09:45:17.682Z,37.39
2022-08-22T09:46:18.684Z,37.10
2022-08-22T09:47:17.682Z,37.20
2022-08-22T09:48:17.685Z,37.10
2022-08-22T09:49:17.684Z,37.10
2022-08-22T09:50:17.749Z,38.56
2022-08-22T09:51:31.823Z,37.98
2022-08-22T09:52:34.117Z,37.49
2022-08-22T09:53:17.687Z,37.30
2022-08-22T09:54:18.774Z,37.30
2022-08-22T09:55:17.687Z,37.01
2022-08-22T09:56:17.687Z,37.30
2022-08-22T09:57:17.688Z,37.10
2022-08-22T09:58:17.693Z,37.01
2022-08-22T09:59:17.690Z,37.20
2022-08-22T10:00:17.691Z,37.30
2022-08-22T10:01:17.704Z,37.39
2022-08-22T10:02:17.690Z,44.19
2022-08-22T10:03:17.689Z,42.54
2022-08-22T10:04:19.593Z,38.46
2022-08-22T10:05:41.003Z,37.68
2022-08-22T10:06:17.691Z,37.30
2022-08-22T10:07:17.691Z,37.68
2022-08-22T10:08:19.648Z,37.39
2022-08-22T10:09:17.694Z,37.30
2022-08-22T10:10:17.696Z,37.10
2022-08-22T10:11:17.694Z,37.30
2022-08-22T10:12:17.695Z,37.49
2022-08-22T10:13:17.696Z,37.32
2022-08-22T10:14:22.434Z,40.72
2022-08-22T10:15:17.698Z,37.90
2022-08-22T10:16:17.698Z,37.22
2022-08-22T10:17:21.709Z,37.41
2022-08-22T10:18:17.698Z,36.93
2022-08-22T10:19:18.026Z,36.83
2022-08-22T10:20:17.701Z,36.83
2022-08-22T10:21:17.701Z,36.63
2022-08-22T10:22:17.699Z,36.54
2022-08-22T10:23:17.702Z,36.93
2022-08-22T10:24:25.777Z,36.73
2022-08-22T10:25:18.469Z,36.54
2022-08-22T10:26:22.817Z,36.54
2022-08-22T10:27:17.704Z,36.44
2022-08-22T10:28:17.705Z,36.24
2022-08-22T10:29:17.703Z,36.83
2022-08-22T10:30:17.706Z,36.83
2022-08-22T10:31:17.707Z,36.44
2022-08-22T10:32:17.708Z,36.63
2022-08-22T10:33:17.706Z,36.54
2022-08-22T10:34:17.709Z,36.44
2022-08-22T10:35:17.711Z,36.54
2022-08-22T10:36:17.710Z,36.34
2022-08-22T10:37:17.709Z,36.44
2022-08-22T10:38:17.710Z,36.44
2022-08-22T10:39:17.711Z,36.05
2022-08-22T10:40:17.858Z,36.15
2022-08-22T10:41:17.713Z,36.24
2022-08-22T10:42:18.562Z,36.26
2022-08-22T10:43:17.715Z,35.78
2022-08-22T10:44:17.716Z,35.66
2022-08-22T10:45:23.613Z,35.86
2022-08-22T10:46:17.716Z,35.86
2022-08-22T10:47:19.080Z,35.86
2022-08-22T10:48:17.719Z,35.76
2022-08-22T10:49:18.096Z,35.37
2022-08-22T10:50:17.829Z,35.68
2022-08-22T10:51:17.719Z,35.58
2022-08-22T10:52:17.722Z,36.07
2022-08-22T10:53:17.721Z,35.57
2022-08-22T10:54:20.026Z,35.97
2022-08-22T10:55:17.731Z,35.97
2022-08-22T10:56:21.407Z,35.47
2022-08-22T10:57:20.741Z,35.57
2022-08-22T10:58:17.726Z,35.49
2022-08-22T10:59:17.725Z,35.49
2022-08-22T11:00:17.799Z,35.29
2022-08-22T11:01:37.645Z,35.10
2022-08-22T11:02:17.728Z,35.10
2022-08-22T11:03:23.314Z,35.19
2022-08-22T11:04:17.730Z,35.19
2022-08-22T11:05:17.732Z,34.90
2022-08-22T11:06:17.735Z,35.00
2022-08-22T11:07:17.732Z,35.10
2022-08-22T11:08:17.734Z,34.80
2022-08-22T11:09:17.739Z,34.80
2022-08-22T11:10:17.735Z,35.10
2022-08-22T11:11:17.758Z,35.00
2022-08-22T11:12:17.737Z,35.10
2022-08-22T11:13:17.738Z,34.80
2022-08-22T11:14:17.738Z,34.80
2022-08-22T11:15:27.301Z,34.61
2022-08-22T11:16:17.741Z,34.90
2022-08-22T11:17:31.097Z,35.10
2022-08-22T11:18:17.742Z,34.52
2022-08-22T11:19:17.742Z,34.52
2022-08-22T11:20:19.446Z,34.42
2022-08-22T11:21:17.751Z,34.42
2022-08-22T11:22:17.746Z,34.32
2022-08-22T11:23:17.746Z,34.03
2022-08-22T11:24:34.895Z,34.12
2022-08-22T11:25:23.775Z,34.32
2022-08-22T11:26:33.559Z,34.32
2022-08-22T11:27:20.868Z,34.42
2022-08-22T11:28:17.752Z,34.12
2022-08-22T11:29:17.751Z,34.22
2022-08-22T11:30:18.664Z,33.83
2022-08-22T11:31:17.891Z,34.42
2022-08-22T11:32:17.773Z,33.93
2022-08-22T11:33:17.754Z,33.91
2022-08-22T11:34:17.757Z,33.73
2022-08-22T11:35:17.756Z,33.93
2022-08-22T11:36:17.759Z,33.83
2022-08-22T11:37:17.758Z,33.72
2022-08-22T11:38:17.765Z,33.91
2022-08-22T11:39:18.257Z,33.91
2022-08-22T11:40:17.855Z,33.93
2022-08-22T11:41:17.760Z,33.81
2022-08-22T11:42:21.908Z,33.81
2022-08-22T11:43:18.382Z,33.72
2022-08-22T11:44:17.764Z,33.91
2022-08-22T11:45:17.764Z,34.12
2022-08-22T11:46:19.050Z,33.91
2022-08-22T11:47:17.770Z,33.72
2022-08-22T11:48:17.768Z,33.43
2022-08-22T11:49:18.850Z,33.62
2022-08-22T11:50:17.767Z,33.62
2022-08-22T11:51:17.769Z,33.93
2022-08-22T11:52:17.789Z,33.54
2022-08-22T11:53:17.771Z,33.62
2022-08-22T11:54:17.770Z,33.62
2022-08-22T11:55:17.771Z,33.62
2022-08-22T11:56:17.774Z,33.72
2022-08-22T11:57:17.773Z,34.30
2022-08-22T11:58:17.774Z,33.81
2022-08-22T11:59:17.773Z,33.62
2022-08-22T12:00:17.775Z,33.62
2022-08-22T12:01:18.486Z,33.53
2022-08-22T12:02:17.776Z,33.43
2022-08-22T12:03:17.778Z,33.43
2022-08-22T12:04:17.780Z,33.23
2022-08-22T12:05:20.070Z,33.62
2022-08-22T12:06:17.780Z,33.43
2022-08-22T12:07:17.779Z,33.33
2022-08-22T12:08:21.188Z,33.23
2022-08-22T12:09:17.985Z,33.33
2022-08-22T12:10:17.790Z,33.23
2022-08-22T12:11:17.784Z,33.33
2022-08-22T12:12:18.192Z,33.33
2022-08-22T12:13:17.784Z,33.23
2022-08-22T12:14:17.788Z,33.33
2022-08-22T12:15:17.787Z,33.81
2022-08-22T12:16:17.787Z,33.14
2022-08-22T12:17:33.536Z,33.64
2022-08-22T12:18:21.124Z,33.23
2022-08-22T12:19:17.788Z,33.33
2022-08-22T12:20:18.765Z,32.75
2022-08-22T12:21:17.792Z,33.33
2022-08-22T12:22:17.791Z,33.23
2022-08-22T12:23:17.790Z,33.04
2022-08-22T12:24:19.446Z,32.84
2022-08-22T12:25:17.793Z,33.23
2022-08-22T12:26:17.794Z,33.23
2022-08-22T12:27:18.303Z,33.14
2022-08-22T12:28:17.795Z,33.14
2022-08-22T12:29:17.795Z,33.43
2022-08-22T12:30:17.871Z,32.94
2022-08-22T12:31:17.796Z,33.04
2022-08-22T12:32:17.799Z,32.94
2022-08-22T12:33:22.920Z,33.04
2022-08-22T12:34:17.799Z,32.94
2022-08-22T12:35:17.799Z,32.96
2022-08-22T12:36:18.663Z,33.04
2022-08-22T12:37:17.815Z,32.84
2022-08-22T12:38:28.055Z,32.75
2022-08-22T12:39:17.802Z,32.65
2022-08-22T12:40:17.879Z,32.55
2022-08-22T12:41:28.334Z,32.84
2022-08-22T12:42:17.805Z,32.75
2022-08-22T12:43:18.835Z,32.65
2022-08-22T12:44:17.808Z,32.75
2022-08-22T12:45:17.806Z,32.55
2022-08-22T12:46:17.810Z,32.55
2022-08-22T12:47:17.809Z,32.84
2022-08-22T12:48:17.810Z,32.55
2022-08-22T12:49:17.811Z,32.65
2022-08-22T12:50:17.810Z,32.65
2022-08-22T12:51:17.874Z,32.84
2022-08-22T12:52:17.813Z,32.65
2022-08-22T12:53:20.202Z,32.65
2022-08-22T12:54:17.813Z,32.55
2022-08-22T12:55:17.814Z,32.45